createdAt,value
2018-11-02T00:01:08.576Z,6.30
2018-11-02T00:03:39.523Z,5.50
2018-11-02T00:06:10.525Z,5.67
2018-11-02T00:08:41.640Z,5.37
2018-11-02T00:11:13.324Z,5.37
2018-11-02T00:13:44.559Z,5.70
2018-11-02T00:16:15.826Z,5.93
2018-11-02T00:18:47.485Z,6.20
2018-11-02T00:21:18.803Z,6.33
2018-11-02T00:23:50.148Z,7.40
2018-11-02T00:26:21.066Z,7.00
2018-11-02T00:28:52.319Z,7.03
2018-11-02T00:31:23.965Z,7.57
2018-11-02T00:33:54.863Z,6.27
2018-11-02T00:36:25.994Z,7.77
2018-11-02T00:38:58.051Z,7.73
2018-11-02T00:41:29.021Z,7.13
2018-11-02T00:44:00.266Z,8.10
2018-11-02T00:46:31.452Z,7.17
2018-11-02T00:49:02.749Z,6.73
2018-11-02T00:51:33.814Z,6.33
2018-11-02T00:54:04.803Z,7.70
2018-11-02T00:56:35.851Z,7.33
2018-11-02T00:59:06.906Z,8.57
2018-11-02T01:01:38.807Z,8.70
2018-11-02T01:04:09.847Z,8.73
2018-11-02T01:06:42.012Z,7.97
2018-11-02T01:09:15.432Z,9.20
2018-11-02T01:11:46.842Z,9.13
2018-11-02T01:14:18.364Z,9.77
2018-11-02T01:16:49.328Z,9.77
2018-11-02T01:19:25.608Z,8.50
2018-11-02T01:21:56.977Z,8.80
2018-11-02T01:24:27.908Z,9.60
2018-11-02T01:26:58.979Z,10.10
2018-11-02T01:29:30.394Z,10.37
2018-11-02T01:32:01.362Z,11.03
2018-11-02T01:34:32.277Z,9.90
2018-11-02T01:37:03.252Z,9.13
2018-11-02T01:39:34.696Z,8.90
2018-11-02T01:42:06.418Z,11.67
2018-11-02T01:44:37.755Z,9.90
2018-11-02T01:47:08.894Z,10.20
2018-11-02T01:49:39.786Z,12.07
2018-11-02T01:52:10.712Z,11.73
2018-11-02T01:54:41.906Z,12.07
2018-11-02T01:57:12.808Z,12.13
2018-11-02T01:59:43.764Z,10.97
2018-11-02T02:02:14.940Z,12.57
2018-11-02T02:04:46.631Z,12.00
2018-11-02T02:07:17.512Z,12.17
2018-11-02T02:09:48.736Z,13.43
2018-11-02T02:12:19.625Z,11.93
2018-11-02T02:14:50.542Z,11.90
2018-11-02T02:17:21.455Z,12.23
2018-11-02T02:19:52.627Z,13.23
2018-11-02T02:22:23.874Z,12.07
2018-11-02T02:24:55.151Z,11.97
2018-11-02T02:27:26.070Z,12.17
2018-11-02T02:29:57.631Z,14.83
2018-11-02T02:32:28.542Z,14.77
2018-11-02T02:34:59.540Z,14.20
2018-11-02T02:37:30.399Z,15.90
2018-11-02T02:40:02.151Z,13.83
2018-11-02T02:42:33.059Z,13.67
2018-11-02T02:45:03.974Z,13.00
2018-11-02T02:47:34.904Z,12.67
2018-11-02T02:50:07.335Z,12.30
2018-11-02T02:52:38.234Z,12.83
2018-11-02T02:55:09.528Z,13.07
2018-11-02T02:57:41.012Z,11.13
2018-11-02T03:00:13.980Z,12.00
2018-11-02T03:02:45.031Z,10.47
2018-11-02T03:05:16.219Z,10.80
2018-11-02T03:07:47.379Z,11.07
2018-11-02T03:10:18.363Z,10.83
2018-11-02T03:12:50.069Z,11.77
2018-11-02T03:15:21.248Z,10.73
2018-11-02T03:17:52.422Z,11.10
2018-11-02T03:20:23.351Z,11.37
2018-11-02T03:22:54.218Z,12.67
2018-11-02T03:25:25.435Z,13.73
2018-11-02T03:27:56.614Z,13.40
2018-11-02T03:30:27.609Z,13.13
2018-11-02T03:32:58.481Z,12.07
2018-11-02T03:35:29.395Z,13.57
2018-11-02T03:38:00.334Z,14.63
2018-11-02T03:40:31.627Z,13.17
2018-11-02T03:43:02.515Z,14.60
2018-11-02T03:45:33.422Z,15.40
2018-11-02T03:48:04.593Z,15.83
2018-11-02T03:50:35.519Z,16.87
2018-11-02T03:53:06.417Z,17.20
2018-11-02T03:55:37.364Z,16.07
2018-11-02T03:58:08.231Z,14.47
2018-11-02T04:00:41.051Z,13.07
2018-11-02T04:03:12.298Z,13.50
2018-11-02T04:05:43.199Z,14.17
2018-11-02T04:08:14.086Z,14.17
2018-11-02T04:10:45.980Z,15.77
2018-11-02T04:13:16.878Z,15.43
2018-11-02T04:15:47.751Z,12.93
2018-11-02T04:18:18.690Z,13.47
2018-11-02T04:20:49.584Z,12.70
2018-11-02T04:23:20.455Z,14.70
2018-11-02T04:25:51.716Z,13.43
2018-11-02T04:28:22.548Z,13.33
2018-11-02T04:30:53.444Z,12.63
2018-11-02T04:33:24.391Z,13.40
2018-11-02T04:35:55.273Z,13.77
2018-11-02T04:38:26.166Z,13.63
2018-11-02T04:40:57.114Z,15.77
2018-11-02T04:43:28.039Z,13.37
2018-11-02T04:45:59.180Z,14.30
2018-11-02T04:48:30.126Z,14.93
2018-11-02T04:51:01.058Z,14.70
2018-11-02T04:53:32.164Z,14.83
2018-11-02T04:56:03.033Z,15.47
2018-11-02T04:58:34.231Z,16.53
2018-11-02T05:01:05.104Z,15.30
2018-11-02T05:03:35.971Z,15.13
2018-11-02T05:06:07.112Z,14.13
2018-11-02T05:08:37.981Z,15.77
2018-11-02T05:11:09.427Z,15.57
2018-11-02T05:13:40.332Z,14.90
2018-11-02T05:16:11.209Z,14.63
2018-11-02T05:18:42.376Z,14.67
2018-11-02T05:21:13.647Z,13.63
2018-11-02T05:23:44.781Z,13.63
2018-11-02T05:26:15.743Z,15.17
2018-11-02T05:28:46.835Z,15.07
2018-11-02T05:31:17.723Z,15.87
2018-11-02T05:33:48.918Z,16.40
2018-11-02T05:36:20.062Z,17.47
2018-11-02T05:38:50.950Z,17.70
2018-11-02T05:41:22.266Z,18.57
2018-11-02T05:43:53.368Z,18.00
2018-11-02T05:46:24.321Z,17.93
2018-11-02T05:48:55.273Z,19.27
2018-11-02T05:51:26.284Z,21.00
2018-11-02T05:53:57.248Z,18.97
2018-11-02T05:56:28.277Z,19.00
2018-11-02T05:59:00.131Z,16.87
2018-11-02T06:01:31.321Z,19.17
2018-11-02T06:04:02.162Z,18.23
2018-11-02T06:06:33.258Z,18.83
2018-11-02T06:09:04.618Z,18.33
2018-11-02T06:11:35.692Z,17.10
2018-11-02T06:14:06.717Z,17.37
2018-11-02T06:16:37.694Z,18.43
2018-11-02T06:19:08.785Z,16.33
2018-11-02T06:21:39.722Z,17.77
2018-11-02T06:24:10.744Z,16.17
2018-11-02T06:26:41.803Z,15.00
2018-11-02T06:29:12.840Z,15.90
2018-11-02T06:31:44.251Z,14.57
2018-11-02T06:34:15.307Z,14.47
2018-11-02T06:36:46.654Z,15.23
2018-11-02T06:39:17.606Z,16.47
2018-11-02T06:41:48.798Z,16.60
2018-11-02T06:44:19.726Z,17.47
2018-11-02T06:46:50.802Z,17.10
2018-11-02T06:49:21.841Z,18.47
2018-11-02T06:51:52.788Z,16.57
2018-11-02T06:54:23.755Z,17.53
2018-11-02T06:56:55.179Z,18.00
2018-11-02T06:59:26.315Z,17.43
2018-11-02T07:01:57.301Z,17.70
2018-11-02T07:04:28.747Z,20.30
2018-11-02T07:06:59.762Z,17.63
2018-11-02T07:09:31.172Z,20.77
2018-11-02T07:12:02.220Z,20.00
2018-11-02T07:14:33.468Z,23.37
2018-11-02T07:17:04.385Z,21.90
2018-11-02T07:19:35.662Z,22.07
2018-11-02T07:22:07.075Z,18.70
2018-11-02T07:24:38.168Z,18.70
2018-11-02T07:27:09.263Z,16.77
2018-11-02T07:29:40.267Z,17.17
2018-11-02T07:32:11.296Z,16.77
2018-11-02T07:34:42.399Z,18.50
2018-11-02T07:37:13.303Z,21.57
2018-11-02T07:39:44.366Z,21.73
2018-11-02T07:42:15.389Z,20.87
2018-11-02T07:44:46.573Z,17.33
2018-11-02T07:47:17.525Z,18.73
2018-11-02T07:49:48.916Z,19.03
2018-11-02T07:52:19.867Z,19.17
2018-11-02T07:54:51.150Z,17.90
2018-11-02T07:57:22.083Z,19.60
2018-11-02T07:59:53.066Z,19.23
2018-11-02T08:02:24.230Z,19.93
2018-11-02T08:04:55.232Z,20.73
2018-11-02T08:07:26.540Z,20.60
2018-11-02T08:09:58.012Z,17.07
2018-11-02T08:12:29.395Z,19.03
2018-11-02T08:15:00.545Z,19.53
2018-11-02T08:17:31.625Z,19.60
2018-11-02T08:20:02.592Z,18.13
2018-11-02T08:22:33.541Z,18.10
2018-11-02T08:25:04.604Z,16.67
2018-11-02T08:27:35.536Z,16.00
2018-11-02T08:30:06.965Z,15.93
2018-11-02T08:32:38.265Z,14.87
2018-11-02T08:35:12.417Z,12.93
2018-11-02T08:37:43.749Z,13.10
2018-11-02T08:40:14.946Z,13.30
2018-11-02T08:42:45.992Z,12.37
2018-11-02T08:45:17.065Z,13.30
2018-11-02T08:47:48.880Z,12.40
2018-11-02T08:50:19.899Z,12.97
2018-11-02T08:52:50.921Z,12.20
2018-11-02T08:55:22.004Z,11.60
2018-11-02T08:57:53.144Z,12.43
2018-11-02T09:00:24.036Z,12.57
2018-11-02T09:02:55.118Z,12.70
2018-11-02T09:05:26.076Z,13.10
2018-11-02T09:07:57.217Z,11.83
2018-11-02T09:10:28.174Z,12.03
2018-11-02T09:12:59.276Z,12.90
2018-11-02T09:15:31.951Z,13.63
2018-11-02T09:18:01.200Z,12.67
2018-11-02T09:20:32.470Z,13.20
2018-11-02T09:23:03.555Z,12.80
2018-11-02T09:25:34.889Z,14.80
2018-11-02T09:28:06.401Z,14.20
2018-11-02T09:30:37.408Z,14.67
2018-11-02T09:33:08.494Z,13.00
2018-11-02T09:35:39.651Z,14.77
2018-11-02T09:38:10.682Z,14.97
2018-11-02T09:40:41.624Z,13.40
2018-11-02T09:43:12.752Z,12.77
2018-11-02T09:45:43.798Z,13.27
2018-11-02T09:48:15.085Z,12.40
2018-11-02T09:50:46.126Z,14.17
2018-11-02T09:53:17.155Z,12.10
2018-11-02T09:55:48.464Z,13.40
2018-11-02T09:58:19.462Z,13.03
2018-11-02T10:00:50.901Z,13.07
2018-11-02T10:03:21.949Z,12.47
2018-11-02T10:05:52.917Z,11.97
2018-11-02T10:08:23.984Z,12.83
2018-11-02T10:10:54.971Z,13.70
2018-11-02T10:13:26.053Z,13.07
2018-11-02T10:15:57.366Z,14.37
2018-11-02T10:18:28.752Z,14.50
2018-11-02T10:20:59.706Z,16.23
2018-11-02T10:23:31.171Z,13.00
2018-11-02T10:26:02.544Z,13.80
2018-11-02T10:28:33.741Z,13.97
2018-11-02T10:31:04.976Z,13.63
2018-11-02T10:33:36.031Z,13.60
2018-11-02T10:36:08.470Z,14.20
2018-11-02T10:38:39.377Z,15.10
2018-11-02T10:41:12.358Z,14.97
2018-11-02T10:43:43.562Z,14.20
2018-11-02T10:46:14.573Z,15.53
2018-11-02T10:48:46.062Z,14.90
2018-11-02T10:51:17.455Z,14.00
2018-11-02T10:53:48.353Z,14.43
2018-11-02T10:56:19.347Z,14.17
2018-11-02T10:58:50.232Z,12.67
2018-11-02T11:01:38.390Z,13.43
2018-11-02T11:04:09.363Z,13.43
2018-11-02T11:06:40.351Z,13.70
2018-11-02T11:09:13.336Z,13.20
2018-11-02T11:11:44.531Z,12.83
2018-11-02T11:14:15.352Z,13.03
2018-11-02T11:16:46.265Z,13.20
2018-11-02T11:19:17.924Z,13.77
2018-11-02T11:21:49.010Z,13.23
2018-11-02T11:24:20.031Z,12.97
2018-11-02T11:26:51.098Z,13.00
2018-11-02T11:29:22.157Z,12.50
2018-11-02T11:31:52.966Z,16.50
2018-11-02T11:34:23.944Z,15.90
2018-11-02T11:36:54.938Z,16.10
2018-11-02T11:39:26.262Z,16.53
2018-11-02T11:41:57.511Z,16.47
2018-11-02T11:44:28.507Z,16.83
2018-11-02T11:46:59.900Z,17.30
2018-11-02T11:49:30.903Z,17.97
2018-11-02T11:52:01.795Z,18.07
2018-11-02T11:54:32.793Z,18.87
2018-11-02T11:57:03.657Z,16.70
2018-11-02T11:59:34.911Z,17.00
2018-11-02T12:02:05.996Z,16.87
2018-11-02T12:04:36.894Z,17.67
2018-11-02T12:07:07.881Z,15.77
2018-11-02T12:09:38.876Z,15.33
2018-11-02T12:12:09.997Z,15.80
2018-11-02T12:14:40.909Z,17.00
2018-11-02T12:17:12.116Z,18.00
2018-11-02T12:19:43.574Z,16.30
2018-11-02T12:22:14.626Z,15.97
2018-11-02T12:24:45.563Z,15.60
2018-11-02T12:27:16.810Z,16.30
2018-11-02T12:29:48.012Z,16.47
2018-11-02T12:32:18.960Z,14.60
2018-11-02T12:34:50.268Z,14.43
2018-11-02T12:37:21.134Z,14.97
2018-11-02T12:39:52.043Z,15.90
2018-11-02T12:42:23.327Z,14.53
2018-11-02T12:44:54.189Z,14.43
2018-11-02T12:47:25.143Z,14.40
2018-11-02T12:49:56.149Z,14.67
2018-11-02T12:52:27.020Z,14.90
2018-11-02T12:54:58.006Z,14.13
2018-11-02T12:57:28.997Z,13.97
2018-11-02T12:59:59.858Z,13.50
2018-11-02T13:02:31.505Z,13.97
2018-11-02T13:05:02.436Z,13.93
2018-11-02T13:07:33.652Z,13.43
2018-11-02T13:10:04.536Z,12.40
2018-11-02T13:12:36.338Z,13.33
2018-11-02T13:15:08.953Z,11.53
2018-11-02T13:17:40.562Z,11.30
2018-11-02T13:20:12.021Z,9.03
2018-11-02T13:22:43.737Z,6.50
2018-11-02T13:25:18.754Z,5.73
2018-11-02T13:27:50.443Z,5.60
2018-11-02T13:30:21.598Z,5.70
2018-11-02T13:32:52.507Z,5.20
2018-11-02T13:35:23.820Z,5.43
2018-11-02T13:37:54.730Z,6.33
2018-11-02T13:40:25.700Z,5.97
2018-11-02T13:42:56.970Z,5.73
2018-11-02T13:45:28.701Z,5.70
2018-11-02T13:47:59.970Z,6.13
2018-11-02T13:50:31.013Z,5.63
2018-11-02T13:53:01.863Z,6.00
2018-11-02T13:55:33.366Z,5.70
2018-11-02T13:58:04.317Z,6.03
2018-11-02T14:00:35.214Z,5.30
2018-11-02T14:03:06.230Z,5.70
2018-11-02T14:05:37.297Z,5.10
2018-11-02T14:08:08.214Z,4.67
2018-11-02T14:10:39.145Z,4.83
2018-11-02T14:13:10.421Z,4.97
2018-11-02T14:15:42.185Z,5.17
2018-11-02T14:18:13.200Z,5.53
2018-11-02T14:20:44.190Z,5.87
2018-11-02T14:23:15.117Z,6.83
2018-11-02T14:25:46.059Z,5.47
2018-11-02T14:28:17.031Z,6.47
2018-11-02T14:30:47.943Z,5.00
2018-11-02T14:33:18.900Z,4.87
2018-11-02T14:35:49.786Z,4.87
2018-11-02T14:38:20.681Z,4.53
2018-11-02T14:40:51.631Z,4.07
2018-11-02T14:43:22.536Z,4.10
2018-11-02T14:45:53.548Z,4.20
2018-11-02T14:48:24.452Z,4.20
2018-11-02T14:50:55.501Z,3.73
2018-11-02T14:53:26.469Z,3.20
2018-11-02T14:55:57.404Z,3.30
2018-11-02T14:58:28.356Z,3.40
2018-11-02T15:00:59.654Z,2.87
2018-11-02T15:03:30.663Z,2.73
2018-11-02T15:06:01.612Z,2.70
2018-11-02T15:08:32.571Z,2.83
2018-11-02T15:11:03.456Z,2.90
2018-11-02T15:13:34.371Z,3.10
2018-11-02T15:16:05.328Z,3.13
2018-11-02T15:18:36.260Z,3.10
2018-11-02T15:21:07.747Z,2.63
2018-11-02T15:23:38.791Z,2.70
2018-11-02T15:26:10.076Z,3.23
2018-11-02T15:28:41.037Z,2.60
2018-11-02T15:31:11.981Z,2.80
2018-11-02T15:33:42.997Z,3.60
2018-11-02T15:36:13.975Z,3.57
2018-11-02T15:38:45.321Z,3.30
2018-11-02T15:41:16.238Z,2.50
2018-11-02T15:43:47.226Z,2.10
2018-11-02T15:46:18.317Z,2.57
2018-11-02T15:48:49.626Z,2.70
2018-11-02T15:51:20.864Z,2.43
2018-11-02T15:53:51.794Z,2.60
2018-11-02T15:56:22.713Z,2.40
2018-11-02T15:58:53.650Z,2.50
2018-11-02T16:01:24.539Z,2.70
2018-11-02T16:03:55.442Z,2.40
2018-11-02T16:06:26.406Z,2.40
2018-11-02T16:08:57.339Z,2.40
2018-11-02T16:11:28.293Z,2.57
2018-11-02T16:13:59.195Z,2.53
2018-11-02T16:16:30.521Z,2.20
2018-11-02T16:19:01.615Z,2.90
2018-11-02T16:21:32.518Z,2.63
2018-11-02T16:24:03.527Z,2.80
2018-11-02T16:26:34.501Z,2.50
2018-11-02T16:29:05.824Z,3.00
2018-11-02T16:31:36.971Z,2.47
2018-11-02T16:34:08.017Z,2.07
2018-11-02T16:36:38.969Z,2.20
2018-11-02T16:39:13.871Z,2.27
2018-11-02T16:41:44.819Z,3.20
2018-11-02T16:44:16.005Z,2.73
2018-11-02T16:46:47.004Z,2.40
2018-11-02T16:49:17.930Z,3.70
2018-11-02T16:51:48.832Z,4.10
2018-11-02T16:54:20.172Z,6.10
2018-11-02T16:56:51.048Z,8.20
2018-11-02T16:59:21.981Z,8.20
2018-11-02T17:01:53.020Z,21.43
2018-11-02T17:04:23.960Z,29.00
2018-11-02T17:06:55.233Z,12.67
2018-11-02T17:09:26.502Z,8.00
2018-11-02T17:11:57.824Z,6.73
2018-11-02T17:14:28.790Z,9.97
2018-11-02T17:16:59.709Z,7.27
2018-11-02T17:19:30.692Z,4.70
2018-11-02T17:22:02.038Z,4.40
2018-11-02T17:24:32.911Z,4.43
2018-11-02T17:27:03.834Z,3.40
2018-11-02T17:29:35.114Z,4.80
2018-11-02T17:32:06.219Z,5.70
2018-11-02T17:34:37.136Z,4.63
2018-11-02T17:37:08.534Z,4.00
2018-11-02T17:39:39.910Z,4.40
2018-11-02T17:42:13.825Z,5.07
2018-11-02T17:44:44.853Z,5.33
2018-11-02T17:47:15.796Z,6.43
2018-11-02T17:49:46.712Z,11.07
2018-11-02T17:52:17.638Z,11.90
2018-11-02T17:54:48.599Z,6.90
2018-11-02T17:57:19.541Z,5.07
2018-11-02T17:59:50.585Z,4.37
2018-11-02T18:02:21.538Z,6.13
2018-11-02T18:04:52.843Z,6.50
2018-11-02T18:07:24.122Z,5.47
2018-11-02T18:09:55.901Z,5.30
2018-11-02T18:12:26.947Z,4.57
2018-11-02T18:14:58.259Z,4.50
2018-11-02T18:17:29.801Z,4.20
2018-11-02T18:20:01.354Z,3.87
2018-11-02T18:22:32.664Z,4.53
2018-11-02T18:25:03.642Z,3.93
2018-11-02T18:27:34.667Z,3.27
2018-11-02T18:30:06.508Z,3.47
2018-11-02T18:32:37.540Z,3.57
2018-11-02T18:35:09.310Z,4.03
2018-11-02T18:37:40.225Z,3.70
2018-11-02T18:40:13.481Z,3.20
2018-11-02T18:42:44.518Z,3.43
2018-11-02T18:45:16.171Z,3.67
2018-11-02T18:47:48.371Z,3.53
2018-11-02T18:50:20.603Z,3.37
2018-11-02T18:52:51.956Z,3.47
2018-11-02T18:55:23.219Z,3.50
2018-11-02T19:00:25.133Z,4.10
2018-11-02T19:02:56.036Z,4.37
2018-11-02T19:05:27.088Z,4.90
2018-11-02T19:07:58.297Z,4.20
2018-11-02T19:10:29.247Z,3.70
2018-11-02T19:13:00.162Z,3.90
2018-11-02T19:15:31.256Z,3.40
2018-11-02T19:18:02.148Z,3.70
2018-11-02T19:20:33.136Z,3.23
2018-11-02T19:23:04.332Z,3.27
2018-11-02T19:25:35.244Z,4.37
2018-11-02T19:28:06.172Z,4.90
2018-11-02T19:30:37.839Z,4.63
2018-11-02T19:33:08.866Z,4.90
2018-11-02T19:35:40.061Z,6.20
2018-11-02T19:38:11.209Z,6.40
2018-11-02T19:40:41.885Z,5.20
2018-11-02T19:43:12.832Z,4.93
2018-11-02T19:45:43.748Z,4.70
2018-11-02T19:48:14.705Z,4.37
2018-11-02T19:50:45.696Z,4.70
2018-11-02T19:53:16.526Z,5.00
2018-11-02T19:55:47.817Z,5.57
2018-11-02T19:58:18.707Z,5.60
2018-11-02T20:00:49.612Z,4.93
2018-11-02T20:03:20.533Z,4.43
2018-11-02T20:05:51.754Z,4.57
2018-11-02T20:08:23.096Z,4.77
2018-11-02T20:10:54.088Z,4.20
2018-11-02T20:13:25.295Z,4.77
2018-11-02T20:15:56.520Z,4.57
2018-11-02T20:18:27.426Z,4.77
2018-11-02T20:20:58.406Z,5.30
2018-11-02T20:23:29.795Z,4.70
2018-11-02T20:26:00.746Z,5.27
2018-11-02T20:28:31.647Z,4.90
2018-11-02T20:31:02.588Z,5.37
2018-11-02T20:33:33.531Z,5.07
2018-11-02T20:36:04.833Z,5.40
2018-11-02T20:38:35.778Z,5.57
2018-11-02T20:41:06.842Z,6.27
2018-11-02T20:43:37.810Z,5.50
2018-11-02T20:46:08.938Z,5.20
2018-11-02T20:48:40.298Z,5.40
2018-11-02T20:51:11.144Z,5.53
2018-11-02T20:53:42.436Z,5.43
2018-11-02T20:56:13.373Z,5.20
2018-11-02T20:58:44.279Z,5.40
2018-11-02T21:01:15.605Z,5.00
2018-11-02T21:03:46.553Z,5.17
2018-11-02T21:06:17.583Z,5.37
2018-11-02T21:08:48.599Z,5.47
2018-11-02T21:13:51.254Z,6.03
2018-11-02T21:16:22.370Z,5.27
2018-11-02T21:18:53.646Z,5.33
2018-11-02T21:21:24.600Z,5.53
2018-11-02T21:23:56.212Z,5.70
2018-11-02T21:26:27.222Z,5.43
2018-11-02T21:28:58.723Z,5.63
2018-11-02T21:31:29.649Z,5.70
2018-11-02T21:34:00.691Z,5.40
2018-11-02T21:36:31.710Z,5.63
2018-11-02T21:39:03.047Z,5.80
2018-11-02T21:41:34.368Z,6.03
2018-11-02T21:44:05.304Z,5.97
2018-11-02T21:46:36.221Z,5.60
2018-11-02T21:49:07.353Z,5.10
2018-11-02T21:51:38.331Z,5.80
2018-11-02T21:54:09.318Z,5.30
2018-11-02T21:56:40.499Z,5.23
2018-11-02T21:59:11.787Z,5.50
2018-11-02T22:01:42.714Z,4.87
2018-11-02T22:04:13.875Z,5.70
2018-11-02T22:06:44.771Z,5.13
2018-11-02T22:09:15.834Z,5.43
2018-11-02T22:11:46.791Z,5.53
2018-11-02T22:14:17.715Z,5.50
2018-11-02T22:16:48.653Z,5.60
2018-11-02T22:19:19.646Z,5.10
2018-11-02T22:21:50.508Z,5.50
2018-11-02T22:24:21.435Z,5.13
2018-11-02T22:26:52.679Z,4.80
2018-11-02T22:29:23.887Z,4.80
2018-11-02T22:31:55.245Z,5.20
2018-11-02T22:34:26.158Z,4.63
2018-11-02T22:36:57.167Z,5.00
2018-11-02T22:39:28.119Z,5.57
2018-11-02T22:41:59.105Z,4.80
2018-11-02T22:44:30.109Z,5.23
2018-11-02T22:47:01.034Z,4.60
2018-11-02T22:49:31.988Z,5.43
2018-11-02T22:52:02.972Z,5.40
2018-11-02T22:54:33.933Z,5.50
2018-11-02T22:57:04.897Z,5.00
2018-11-02T22:59:35.843Z,4.93
2018-11-02T23:02:06.951Z,4.53
2018-11-02T23:04:37.962Z,5.00
2018-11-02T23:07:09.330Z,5.10
2018-11-02T23:09:40.325Z,4.87
2018-11-02T23:12:11.395Z,5.10
2018-11-02T23:14:42.423Z,4.13
2018-11-02T23:17:13.741Z,4.53
2018-11-02T23:19:44.704Z,4.50
2018-11-02T23:22:15.593Z,4.60
2018-11-02T23:24:46.901Z,4.90
2018-11-02T23:27:17.821Z,4.97
2018-11-02T23:29:49.684Z,4.27
2018-11-02T23:32:20.932Z,4.53
2018-11-02T23:34:51.916Z,4.93
2018-11-02T23:37:22.857Z,4.77
2018-11-02T23:39:53.825Z,5.00
2018-11-02T23:42:24.796Z,4.87
2018-11-02T23:44:55.846Z,4.67
2018-11-02T23:47:26.720Z,4.97
2018-11-02T23:49:57.675Z,4.63
2018-11-02T23:52:28.617Z,5.40
2018-11-02T23:54:59.533Z,4.73
2018-11-02T23:57:30.820Z,5.17
